Fontana Dam, North Carolina
Current Conditions -  °F | °C
As of 9:35 PM on Tuesday 21 Oct 2014 (Local Time) from KRHP Reporting Station
Broken Clouds Broken Clouds  
Wind Chill: 54°   Ceiling: 4800
Heat Index: 54°   Visibility: 10mi
Dew Point: 43°   Wind: 3mph
Humidity: 67%   Direction: 10°N
Pressure: 30.04"   Gusts: NA
Location:  35.43°N, 83.83°W
Report Text: KRHP 220135Z AUTO 01003KT 10SM BKN048 12/06 A3004 RMK AO2 T01220063
Loading
Personal Weather Stations






























Interactive Weather Map New forecast layout! Learn more

10-Day Weather Forecast

Advertisements
Track Severe Weather on mobile